Historyczne dane pomiarowe

Dodano dane terminowe – wersja testowa.

Dane z okresu 1951-2018

Wersja bazy: 1.27 [2018-11-28, lista zmian], aktualizacja planowana na 2018-12-07

Dane meteo z obszaru Polski uzyskane na podstawie danych udostępnionych przez Instytut Meteorologii i Gospodarki Wodnej – Państwowy Instytut Badawczy.

 

Wybierz Datę:    

       

TemperaturaWilgotnośćWiatrCiśnienieOpadyŚniegCzas trwania zjawisk
 Stacja t tx tn tng RH VA  wxwx mslp ppp RRR   cm mm wxwxwxwxwxwxwx
1980-11-08 -8.2 -1.4-13.5- 90.5- 6.3 1.3---- 0.0-- 6---------
1980-11-09 0.8 2.4-13.1- 94.8- 7.7 3.3---- 0.3-- 5---------
1980-11-10 -3.0 0.4 -3.7- 92.0- 7.0 2.3---- 1.3-- 4---------
1980-11-11 -9.9 -2.3-13.7- 90.5- 2.0 0.0---- 0.0-- 5---------
1980-11-12 -6.4 -0.6-16.0- 89.0- 2.7 1.7---- 0.1-- 4---------
1980-11-13 -1.4 2.2 -6.3- 91.3- 5.0 0.7---- 0.0-- 4---------
1980-11-14 -1.0 2.2 -3.0- 92.0- 5.3 4.0---- 0.0-- 3---------
1980-11-15 1.4 2.2 -1.5- 95.5- 8.0 2.7---- 4.9-- 2---------
1980-11-16 5.9 7.7 1.8- 94.3- 8.0 4.0---- 4.3------------
1980-11-17 7.4 10.2 4.2- 85.0- 3.0 2.3---- 0.0------------
1980-11-18 8.7 13.2 2.3- 81.0- 2.7 5.7---- 2.3------------
1980-11-19 2.0 7.4 0.1- 83.3- 6.0 4.3---- 2.7------------
1980-11-20 -0.9 3.2 -5.1- 84.5- 2.7 0.0---- 0.0-- 2---------
1980-11-21 4.4 7.2 -1.7- 90.8- 4.7 3.3---- 0.0------------
1980-11-22 6.6 9.9 2.2- 88.0- 5.3 2.7---- 0.0------------
1980-11-23 8.1 11.7 3.8- 84.5- 4.7 2.3---- 0.0------------
1980-11-24 8.0 9.7 6.0- 88.3- 4.7 2.7---- 0.0------------
1980-11-25 6.9 11.4 4.0- 79.0- 4.0 1.3---- 0.0------------
1980-11-26 5.0 10.8 0.6- 86.0- 5.0 1.3---- 2.2------------
1980-11-27 -2.4 4.0 -3.7- 91.3- 5.7 3.3---- 5.4-- 2---------
1980-11-28 -4.9 -1.6 -7.9- 88.3- 5.3 1.0---- 0.2-- 8---------
1980-11-29 -4.3 -3.3-12.0- 91.8- 8.0 0.3---- 2.7-- 8---------
1980-11-30 -6.2 -3.3 -6.6- 92.0- 8.0 7.7---- 3.5-- 10---------
1980-12-01-11.8 -6.4-13.5- 82.0- 8.0 2.7---- 0.1-- 13---------
1980-12-02-10.8 -8.3-13.0- 72.5- 8.0 1.3---- 0.0-- 13---------
1980-12-03 -8.1 -5.0-10.4- 76.5- 6.3 8.0---- 0.0-- 10---------
1980-12-04-10.4 -6.8-18.9- 71.8- 0.3 0.7---- 0.0-- 9---------
1980-12-05-15.1 -9.0-22.5- 83.0- 5.3 0.0---- 0.7-- 9---------
1980-12-06-11.0 -4.8-24.0- 82.8- 8.0 3.7---- 3.6-- 9---------
1980-12-07-12.4 -3.8-23.5- 75.8- 3.3 2.3---- 0.0-- 15---------
2165.5 ms

 

Źródłem pochodzenia danych jest Instytut Meteorologii i Gospodarki Wodnej – Państwowy Instytut Badawczy. Dane Instytutu Meteorologii i Gospodarki Wodnej – Państwowego Instytutu Badawczego zostały przetworzone.

Dane źródłowe można odnaleźć na stronie https://dane.imgw.pl